Time;durP1;ratioP1;P1;durP2;ratioP2;P2;SDS_P1;SDS_P2;PMS_P1;PMS_P2;Temp;Humidity;BMP_temperature;BMP_pressure;BME280_temperature;BME280_humidity;BME280_pressure;Samples;Min_cycle;Max_cycle;Signal;HPM_P1;HPM_P2
2023/10/31 00:01:21;;;;;;;15.18;5.25;;;9.70;100.00;;;;;;4941750;28;20065;-79
2023/10/31 00:03:48;;;;;;;15.98;4.72;;;9.70;100.00;;;;;;4959333;28;20081;-79
2023/10/31 00:06:15;;;;;;;15.75;5.32;;;9.70;100.00;;;;;;4950907;28;20053;-79
2023/10/31 00:08:42;;;;;;;13.93;4.95;;;9.70;100.00;;;;;;4945366;28;20071;-79
2023/10/31 00:11:08;;;;;;;16.58;4.65;;;9.70;100.00;;;;;;4964248;28;20749;-79
2023/10/31 00:13:35;;;;;;;15.77;4.60;;;9.70;100.00;;;;;;4950122;28;20056;-79
2023/10/31 00:16:02;;;;;;;9.93;4.57;;;9.70;100.00;;;;;;4941907;28;20146;-79
2023/10/31 00:18:29;;;;;;;15.65;4.38;;;9.70;100.00;;;;;;4961807;28;20703;-79
2023/10/31 00:20:56;;;;;;;12.20;3.95;;;9.70;100.00;;;;;;4942833;28;20117;-79
2023/10/31 00:23:23;;;;;;;12.65;4.80;;;9.70;100.00;;;;;;4961866;28;20176;-80
2023/10/31 00:25:50;;;;;;;16.33;4.40;;;9.70;100.00;;;;;;4947641;28;20055;-79
2023/10/31 00:28:17;;;;;;;19.48;4.63;;;9.70;100.00;;;;;;4947677;28;20046;-79
2023/10/31 00:30:44;;;;;;;11.60;4.43;;;9.70;100.00;;;;;;4960292;28;20074;-79
2023/10/31 00:33:11;;;;;;;18.40;4.57;;;9.70;100.00;;;;;;4945179;28;20110;-79
2023/10/31 00:35:37;;;;;;;18.38;4.93;;;9.70;100.00;;;;;;4960060;28;20078;-79
2023/10/31 00:38:04;;;;;;;16.17;4.85;;;9.70;100.00;;;;;;4962243;28;20047;-79
2023/10/31 00:40:31;;;;;;;15.40;4.55;;;9.80;100.00;;;;;;4964444;28;20050;-79
2023/10/31 00:43:00;;;;;;;13.35;4.72;;;9.80;100.00;;;;;;4955294;28;20055;-79
2023/10/31 00:45:27;;;;;;;12.70;3.80;;;9.80;100.00;;;;;;4961092;28;20054;-79
2023/10/31 00:47:54;;;;;;;9.15;4.15;;;9.80;100.00;;;;;;4957728;28;20396;-79
2023/10/31 00:50:21;;;;;;;12.57;4.38;;;9.80;100.00;;;;;;4946099;28;20047;-79
2023/10/31 00:52:47;;;;;;;14.23;3.78;;;9.80;100.00;;;;;;4963104;28;20043;-79
2023/10/31 00:55:14;;;;;;;12.52;3.90;;;9.80;100.00;;;;;;4967445;28;20089;-79
2023/10/31 00:57:41;;;;;;;14.57;4.68;;;9.80;100.00;;;;;;4960740;28;20471;-79
2023/10/31 01:00:09;;;;;;;15.55;4.45;;;9.80;100.00;;;;;;4944532;28;20820;-79
2023/10/31 01:02:36;;;;;;;12.93;4.05;;;9.80;100.00;;;;;;4957860;28;20050;-79
2023/10/31 01:05:03;;;;;;;13.63;4.80;;;9.80;100.00;;;;;;4958496;28;20050;-79
2023/10/31 01:07:30;;;;;;;10.18;4.10;;;9.80;100.00;;;;;;4944841;28;20451;-79
2023/10/31 01:09:57;;;;;;;10.52;4.45;;;9.70;100.00;;;;;;4959009;28;20110;-79
2023/10/31 01:12:24;;;;;;;7.07;3.92;;;9.70;100.00;;;;;;4944146;28;20050;-79
2023/10/31 01:14:51;;;;;;;18.08;4.78;;;9.70;100.00;;;;;;4963021;28;20058;-79
2023/10/31 01:17:18;;;;;;;12.52;4.70;;;9.70;100.00;;;;;;4946521;28;20054;-79
2023/10/31 01:19:45;;;;;;;15.43;5.35;;;9.80;100.00;;;;;;4960157;28;20078;-79
2023/10/31 01:22:12;;;;;;;10.18;4.63;;;9.70;100.00;;;;;;4965766;28;20771;-79
2023/10/31 01:24:38;;;;;;;9.50;4.97;;;9.80;100.00;;;;;;4936792;28;20551;-79
2023/10/31 01:27:05;;;;;;;10.18;4.50;;;9.70;100.00;;;;;;4961270;28;20185;-79
2023/10/31 01:29:32;;;;;;;12.00;4.55;;;9.70;100.00;;;;;;4941350;28;20098;-79
2023/10/31 01:31:59;;;;;;;12.50;4.82;;;9.70;100.00;;;;;;4959253;28;20058;-79
2023/10/31 01:34:33;;;;;;;9.65;4.35;;;9.70;100.00;;;;;;4957725;28;20054;-79
2023/10/31 01:37:00;;;;;;;15.55;4.28;;;9.70;100.00;;;;;;4962749;28;20054;-79
2023/10/31 01:39:26;;;;;;;21.95;5.00;;;9.70;100.00;;;;;;4962170;28;20046;-79
2023/10/31 01:41:54;;;;;;;11.95;4.28;;;9.70;100.00;;;;;;4959489;28;20628;-79
2023/10/31 01:44:21;;;;;;;12.15;4.05;;;9.70;100.00;;;;;;4959064;28;20082;-79
2023/10/31 01:46:48;;;;;;;15.45;4.10;;;9.70;100.00;;;;;;4958545;28;20138;-80
2023/10/31 01:49:16;;;;;;;13.82;4.60;;;9.70;100.00;;;;;;4964194;28;20211;-79
2023/10/31 01:51:45;;;;;;;14.18;4.75;;;9.70;100.00;;;;;;4944549;28;20054;-79
2023/10/31 01:54:14;;;;;;;13.52;5.00;;;9.70;100.00;;;;;;4956454;28;20078;-79
2023/10/31 01:56:42;;;;;;;11.32;4.78;;;9.70;100.00;;;;;;4959791;28;20047;-79
2023/10/31 01:59:09;;;;;;;12.32;5.22;;;9.70;100.00;;;;;;4958451;28;20082;-79
2023/10/31 02:01:41;;;;;;;8.57;5.07;;;9.70;100.00;;;;;;4942361;28;20059;-80
2023/10/31 02:04:08;;;;;;;17.25;5.03;;;9.70;100.00;;;;;;4939923;28;20050;-79
2023/10/31 02:06:35;;;;;;;14.32;4.72;;;9.70;100.00;;;;;;4958759;28;20562;-80
2023/10/31 02:09:02;;;;;;;13.45;4.57;;;9.70;100.00;;;;;;4942050;28;20047;-80
2023/10/31 02:11:29;;;;;;;16.08;4.63;;;9.70;100.00;;;;;;4956259;28;20114;-80
2023/10/31 02:13:56;;;;;;;13.23;4.63;;;9.70;100.00;;;;;;4960005;28;20754;-80
2023/10/31 02:16:23;;;;;;;13.80;4.72;;;9.70;100.00;;;;;;4958323;28;22147;-81
2023/10/31 02:18:50;;;;;;;11.63;4.68;;;9.60;100.00;;;;;;4957181;28;20145;-79
2023/10/31 02:21:20;;;;;;;12.15;4.30;;;9.60;100.00;;;;;;4958748;28;20051;-79
2023/10/31 02:24:00;;;;;;;11.35;4.50;;;9.60;100.00;;;;;;4942101;28;20074;-80
2023/10/31 02:26:31;;;;;;;18.88;5.05;;;9.70;100.00;;;;;;4957066;28;20157;-79
2023/10/31 02:28:59;;;;;;;16.13;4.45;;;9.70;100.00;;;;;;4942635;28;20138;-79
2023/10/31 02:31:26;;;;;;;14.13;4.40;;;9.70;100.00;;;;;;4957362;28;20070;-79
2023/10/31 02:33:53;;;;;;;11.73;4.13;;;9.70;100.00;;;;;;4955089;28;20047;-80
2023/10/31 02:36:21;;;;;;;12.00;4.07;;;9.70;100.00;;;;;;4956841;28;20074;-79
2023/10/31 02:38:48;;;;;;;9.23;3.65;;;9.60;100.00;;;;;;4958489;28;21017;-80
2023/10/31 02:41:15;;;;;;;0.10;0.10;;;9.60;100.00;;;;;;4957682;28;20078;-79
2023/10/31 02:43:42;;;;;;;0.00;0.00;;;9.70;100.00;;;;;;4960029;28;20059;-79
2023/10/31 02:46:12;;;;;;;0.00;0.00;;;9.70;100.00;;;;;;4959402;28;20061;-80
2023/10/31 02:48:39;;;;;;;0.93;0.65;;;9.60;100.00;;;;;;4959402;28;20054;-79
2023/10/31 02:51:07;;;;;;;0.00;0.00;;;9.70;100.00;;;;;;4949530;28;20043;-80
2023/10/31 02:53:36;;;;;;;0.00;0.00;;;9.60;100.00;;;;;;4947264;28;20070;-80
2023/10/31 02:56:03;;;;;;;0.00;0.00;;;9.70;100.00;;;;;;4948648;28;20058;-80
2023/10/31 02:58:30;;;;;;;0.00;0.00;;;9.70;100.00;;;;;;4964915;28;20044;-80
2023/10/31 03:00:57;;;;;;;0.00;0.00;;;9.70;100.00;;;;;;4973495;28;20061;-75
2023/10/31 03:03:24;;;;;;;0.00;0.00;;;9.70;100.00;;;;;;4941343;23;20733;-75
2023/10/31 03:05:51;;;;;;;0.00;0.00;;;9.70;100.00;;;;;;4905661;29;20171;-75
2023/10/31 03:08:21;;;;;;;0.00;0.00;;;9.70;100.00;;;;;;4908351;29;20500;-75
2023/10/31 03:10:50;;;;;;;0.00;0.00;;;9.70;100.00;;;;;;4907768;29;20115;-75
2023/10/31 03:13:20;;;;;;;0.00;0.00;;;9.70;100.00;;;;;;4908353;29;20040;-75
2023/10/31 03:15:47;;;;;;;0.00;0.00;;;9.70;100.00;;;;;;4906555;29;20060;-75
2023/10/31 03:18:15;;;;;;;0.00;0.00;;;9.70;100.00;;;;;;4898318;29;20091;-74
2023/10/31 03:20:46;;;;;;;0.00;0.00;;;9.70;100.00;;;;;;4907333;29;20119;-75
2023/10/31 03:23:13;;;;;;;0.00;0.00;;;9.70;100.00;;;;;;4897593;29;20699;-75
2023/10/31 03:25:40;;;;;;;0.00;0.00;;;9.70;100.00;;;;;;4908656;29;20060;-75
2023/10/31 03:28:19;;;;;;;0.00;0.00;;;9.70;100.00;;;;;;4897455;29;20107;-74
2023/10/31 03:30:47;;;;;;;0.00;0.00;;;9.70;100.00;;;;;;4904408;29;20053;-75
2023/10/31 03:33:16;;;;;;;0.00;0.00;;;9.70;100.00;;;;;;4901219;29;20465;-75
2023/10/31 03:35:43;;;;;;;0.00;0.00;;;9.70;100.00;;;;;;4906955;29;20052;-75
2023/10/31 03:38:11;;;;;;;0.00;0.00;;;9.70;100.00;;;;;;4905499;29;20084;-75
2023/10/31 03:40:38;;;;;;;0.00;0.00;;;9.70;100.00;;;;;;4907677;29;20135;-75
2023/10/31 03:43:05;;;;;;;0.00;0.00;;;9.70;100.00;;;;;;4906181;29;20663;-75
2023/10/31 03:45:32;;;;;;;0.00;0.00;;;9.70;100.00;;;;;;4903935;29;20766;-75
2023/10/31 03:47:59;;;;;;;0.00;0.00;;;9.80;100.00;;;;;;4907729;29;20115;-75
2023/10/31 03:50:26;;;;;;;0.00;0.00;;;9.80;100.00;;;;;;4908944;29;20086;-75
2023/10/31 03:52:53;;;;;;;0.00;0.00;;;9.80;100.00;;;;;;4894643;29;20055;-75
2023/10/31 03:55:20;;;;;;;0.00;0.00;;;9.80;100.00;;;;;;4902364;29;20052;-75
2023/10/31 03:57:47;;;;;;;0.00;0.00;;;9.80;100.00;;;;;;4910534;29;20750;-75
2023/10/31 04:00:14;;;;;;;0.00;0.00;;;9.80;100.00;;;;;;4915557;29;20127;-75
2023/10/31 04:02:42;;;;;;;0.00;0.00;;;9.80;100.00;;;;;;4897943;29;20048;-75
2023/10/31 04:05:09;;;;;;;0.00;0.00;;;9.80;100.00;;;;;;4905184;29;20131;-75
2023/10/31 04:07:36;;;;;;;0.00;0.00;;;9.80;100.00;;;;;;4919854;29;20111;-75
2023/10/31 04:10:03;;;;;;;0.00;0.00;;;9.80;100.00;;;;;;4910203;29;20292;-75
2023/10/31 04:12:30;;;;;;;0.00;0.00;;;9.80;100.00;;;;;;4907700;29;20111;-75
2023/10/31 04:14:57;;;;;;;0.00;0.00;;;9.80;100.00;;;;;;4908124;29;20606;-75
2023/10/31 04:17:23;;;;;;;0.00;0.00;;;9.80;100.00;;;;;;4901540;29;20825;-75
2023/10/31 04:19:50;;;;;;;0.00;0.00;;;9.80;100.00;;;;;;4893778;29;20156;-75
2023/10/31 04:22:17;;;;;;;0.00;0.00;;;9.90;100.00;;;;;;4902577;29;20063;-75
2023/10/31 04:24:44;;;;;;;0.00;0.00;;;9.90;100.00;;;;;;4897215;29;20598;-75
2023/10/31 04:27:11;;;;;;;0.00;0.00;;;9.90;100.00;;;;;;4900726;29;20055;-75
2023/10/31 04:29:38;;;;;;;0.00;0.00;;;9.90;100.00;;;;;;4899266;29;20052;-75
2023/10/31 04:32:05;;;;;;;0.00;0.00;;;9.90;100.00;;;;;;4895678;29;20370;-75
2023/10/31 04:34:32;;;;;;;0.00;0.00;;;9.90;100.00;;;;;;4900135;29;20059;-75
2023/10/31 04:36:59;;;;;;;0.00;0.00;;;9.90;100.00;;;;;;4895059;29;20051;-78
2023/10/31 04:39:27;;;;;;;0.00;0.00;;;9.90;100.00;;;;;;4897306;29;20084;-78
2023/10/31 04:41:54;;;;;;;0.00;0.00;;;9.90;100.00;;;;;;4899950;29;20062;-79
2023/10/31 04:44:21;;;;;;;0.00;0.00;;;9.90;100.00;;;;;;4898852;29;20055;-78
2023/10/31 04:46:47;;;;;;;0.00;0.00;;;9.90;100.00;;;;;;4895409;29;20083;-78
2023/10/31 04:49:17;;;;;;;0.00;0.00;;;9.90;100.00;;;;;;4897211;29;20171;-78
2023/10/31 04:51:44;;;;;;;0.00;0.00;;;9.90;100.00;;;;;;4896777;29;20063;-79
2023/10/31 04:54:11;;;;;;;0.00;0.00;;;9.90;100.00;;;;;;4898438;29;20065;-78
2023/10/31 04:56:38;;;;;;;0.00;0.00;;;9.90;100.00;;;;;;4900313;29;20115;-79
2023/10/31 04:59:05;;;;;;;0.00;0.00;;;9.90;100.00;;;;;;4895580;29;20111;-79
2023/10/31 05:01:32;;;;;;;0.00;0.00;;;9.90;100.00;;;;;;4900064;29;20630;-79
2023/10/31 05:03:59;;;;;;;0.00;0.00;;;9.90;100.00;;;;;;4894400;29;20052;-79
2023/10/31 05:06:38;;;;;;;0.00;0.00;;;9.90;100.00;;;;;;4895767;29;20110;-79
2023/10/31 05:09:05;;;;;;;0.00;0.00;;;9.90;100.00;;;;;;4896241;29;20417;-79
2023/10/31 05:11:33;;;;;;;0.00;0.00;;;9.90;100.00;;;;;;4897753;29;20037;-79
2023/10/31 05:14:00;;;;;;;0.00;0.00;;;9.90;100.00;;;;;;4898160;29;20055;-79
2023/10/31 05:16:27;;;;;;;0.00;0.00;;;9.90;100.00;;;;;;4890434;29;20048;-79
2023/10/31 05:18:54;;;;;;;0.00;0.00;;;9.90;100.00;;;;;;4896826;29;20108;-79
2023/10/31 05:21:21;;;;;;;0.00;0.00;;;9.90;100.00;;;;;;4897110;29;20830;-79
2023/10/31 05:23:48;;;;;;;0.38;0.38;;;9.90;100.00;;;;;;4905813;29;20163;-78
2023/10/31 05:26:14;;;;;;;0.00;0.00;;;9.90;100.00;;;;;;4908043;29;20147;-78
2023/10/31 05:28:41;;;;;;;0.00;0.00;;;9.90;100.00;;;;;;4903844;29;20072;-79
2023/10/31 05:31:08;;;;;;;0.00;0.00;;;9.90;100.00;;;;;;4895776;29;20051;-78
2023/10/31 05:33:35;;;;;;;0.00;0.00;;;9.90;100.00;;;;;;4899353;29;20048;-79
2023/10/31 05:36:02;;;;;;;0.00;0.00;;;9.90;100.00;;;;;;4897841;29;20063;-79
2023/10/31 05:38:29;;;;;;;0.00;0.00;;;9.90;100.00;;;;;;4895790;29;20123;-78
2023/10/31 05:40:56;;;;;;;0.00;0.00;;;9.90;100.00;;;;;;4899834;29;20105;-79
2023/10/31 05:43:23;;;;;;;0.00;0.00;;;9.90;100.00;;;;;;4900681;29;20087;-79
2023/10/31 05:45:50;;;;;;;0.00;0.00;;;10.00;100.00;;;;;;4906776;29;20635;-79
2023/10/31 05:48:17;;;;;;;0.00;0.00;;;10.00;100.00;;;;;;4907141;29;20075;-78
2023/10/31 05:50:44;;;;;;;0.00;0.00;;;10.00;100.00;;;;;;4896071;29;20060;-78
2023/10/31 05:53:11;;;;;;;0.00;0.00;;;10.00;100.00;;;;;;4896884;29;20075;-78
2023/10/31 05:55:41;;;;;;;0.00;0.00;;;10.00;100.00;;;;;;4896282;29;20138;-79
2023/10/31 05:58:08;;;;;;;0.00;0.00;;;10.00;100.00;;;;;;4898524;29;20059;-78
2023/10/31 06:00:35;;;;;;;0.00;0.00;;;10.00;100.00;;;;;;4897577;29;20079;-78
2023/10/31 06:03:02;;;;;;;0.00;0.00;;;9.90;100.00;;;;;;4911170;29;20060;-79
2023/10/31 06:05:29;;;;;;;0.00;0.00;;;9.90;100.00;;;;;;4905360;29;20704;-78
2023/10/31 06:07:56;;;;;;;0.00;0.00;;;9.90;100.00;;;;;;4902631;29;20053;-79
2023/10/31 06:10:23;;;;;;;0.00;0.00;;;9.90;100.00;;;;;;4905310;29;20116;-80
2023/10/31 06:12:50;;;;;;;0.00;0.00;;;9.90;100.00;;;;;;4901532;29;20116;-80
2023/10/31 06:15:17;;;;;;;0.00;0.00;;;9.90;100.00;;;;;;4909834;29;20044;-79
2023/10/31 06:17:44;;;;;;;0.00;0.00;;;9.90;100.00;;;;;;4908205;29;20052;-79
2023/10/31 06:20:11;;;;;;;0.00;0.00;;;10.00;100.00;;;;;;4907344;29;20063;-80
2023/10/31 06:22:38;;;;;;;0.00;0.00;;;10.00;100.00;;;;;;4905798;29;20646;-80
2023/10/31 06:25:05;;;;;;;0.03;0.03;;;10.00;100.00;;;;;;4912355;29;20540;-81
2023/10/31 06:27:32;;;;;;;0.00;0.00;;;10.00;100.00;;;;;;4908561;29;20071;-79
2023/10/31 06:30:00;;;;;;;0.00;0.00;;;10.10;100.00;;;;;;4910085;29;20080;-79
2023/10/31 06:32:46;;;;;;;0.00;0.00;;;10.10;100.00;;;;;;4908041;29;20058;-79
2023/10/31 06:35:13;;;;;;;0.00;0.00;;;10.10;100.00;;;;;;4900950;29;20134;-80
2023/10/31 06:37:40;;;;;;;0.00;0.00;;;10.10;100.00;;;;;;4905921;29;20076;-79
2023/10/31 06:40:08;;;;;;;0.22;0.22;;;10.10;100.00;;;;;;4901335;29;20108;-78
2023/10/31 06:42:36;;;;;;;0.00;0.00;;;10.20;100.00;;;;;;4902007;29;20059;-79
2023/10/31 06:45:03;;;;;;;0.00;0.00;;;10.30;100.00;;;;;;4900750;29;20814;-79
2023/10/31 06:47:30;;;;;;;0.00;0.00;;;10.30;100.00;;;;;;4900786;29;20113;-79
2023/10/31 06:49:57;;;;;;;0.00;0.00;;;10.30;100.00;;;;;;4900551;29;20067;-79
2023/10/31 06:52:24;;;;;;;0.00;0.00;;;10.40;100.00;;;;;;4901489;29;20044;-79
2023/10/31 06:54:51;;;;;;;0.00;0.00;;;10.50;100.00;;;;;;4909792;29;20442;-79
2023/10/31 06:57:18;;;;;;;0.00;0.00;;;10.60;100.00;;;;;;4898215;29;20106;-79
2023/10/31 06:59:46;;;;;;;0.00;0.00;;;10.60;100.00;;;;;;4900379;29;20088;-78
2023/10/31 07:02:13;;;;;;;0.00;0.00;;;10.70;100.00;;;;;;4898820;29;20056;-79
2023/10/31 07:04:41;;;;;;;0.00;0.00;;;10.70;100.00;;;;;;4899127;29;20139;-78
2023/10/31 07:07:07;;;;;;;0.00;0.00;;;10.70;100.00;;;;;;4902683;29;20087;-79
2023/10/31 07:09:34;;;;;;;0.00;0.00;;;10.80;100.00;;;;;;4901647;29;20060;-79
2023/10/31 07:12:02;;;;;;;0.00;0.00;;;10.80;100.00;;;;;;4904572;29;20108;-79
2023/10/31 07:14:28;;;;;;;0.00;0.00;;;10.80;100.00;;;;;;4906868;29;20107;-79
2023/10/31 07:16:56;;;;;;;0.00;0.00;;;10.80;100.00;;;;;;4906766;29;20124;-79
2023/10/31 07:19:23;;;;;;;0.00;0.00;;;10.90;100.00;;;;;;4902296;29;20145;-79
2023/10/31 07:21:50;;;;;;;0.00;0.00;;;10.90;100.00;;;;;;4900019;29;20836;-79
2023/10/31 07:24:17;;;;;;;0.00;0.00;;;10.90;100.00;;;;;;4906456;29;20104;-81
2023/10/31 07:26:44;;;;;;;0.00;0.00;;;10.90;100.00;;;;;;4904708;29;20103;-82
2023/10/31 07:29:11;;;;;;;0.00;0.00;;;11.00;100.00;;;;;;4901597;29;20056;-82
2023/10/31 07:31:38;;;;;;;0.00;0.00;;;11.00;100.00;;;;;;4905217;29;20044;-80
2023/10/31 07:34:05;;;;;;;0.00;0.00;;;11.00;100.00;;;;;;4897741;29;20702;-80
2023/10/31 07:36:34;;;;;;;0.00;0.00;;;11.10;100.00;;;;;;4896275;29;20569;-80
2023/10/31 07:39:02;;;;;;;0.00;0.00;;;11.10;100.00;;;;;;4904317;29;20629;-79
2023/10/31 07:41:30;;;;;;;0.00;0.00;;;11.10;100.00;;;;;;4905252;29;20423;-79
2023/10/31 07:43:57;;;;;;;0.05;0.05;;;11.20;100.00;;;;;;4902180;29;20059;-79
2023/10/31 07:46:25;;;;;;;0.45;0.20;;;11.20;100.00;;;;;;4900551;29;20140;-74
2023/10/31 07:48:52;;;;;;;0.00;0.00;;;11.20;100.00;;;;;;4902532;29;20417;-74
2023/10/31 07:51:19;;;;;;;0.00;0.00;;;11.20;100.00;;;;;;4899893;29;20142;-75
2023/10/31 07:53:46;;;;;;;0.00;0.00;;;11.20;100.00;;;;;;4900539;29;20119;-77
2023/10/31 07:56:22;;;;;;;0.00;0.00;;;11.30;100.00;;;;;;4899290;29;20067;-75
2023/10/31 07:58:50;;;;;;;0.00;0.00;;;11.30;100.00;;;;;;4904920;29;20044;-78
2023/10/31 08:01:18;;;;;;;0.00;0.00;;;11.30;100.00;;;;;;4902244;29;20052;-73
2023/10/31 08:03:48;;;;;;;0.00;0.00;;;11.40;100.00;;;;;;4899682;29;20439;-78
2023/10/31 08:06:15;;;;;;;0.00;0.00;;;11.40;100.00;;;;;;4904389;29;20530;-82
2023/10/31 08:08:42;;;;;;;0.00;0.00;;;11.40;100.00;;;;;;4902027;29;20071;-83
2023/10/31 08:11:10;;;;;;;0.00;0.00;;;11.40;100.00;;;;;;4896137;29;20060;-77
2023/10/31 08:13:37;;;;;;;0.00;0.00;;;11.40;100.00;;;;;;4897504;29;20055;-79
2023/10/31 08:16:08;;;;;;;0.00;0.00;;;11.40;100.00;;;;;;4905578;29;20055;-78
2023/10/31 08:18:36;;;;;;;0.00;0.00;;;11.50;100.00;;;;;;4905613;29;20048;-77
2023/10/31 08:21:06;;;;;;;0.00;0.00;;;11.40;100.00;;;;;;4908449;29;20553;-79
2023/10/31 08:23:33;;;;;;;0.00;0.00;;;11.50;100.00;;;;;;4907969;29;20052;-77
2023/10/31 08:28:40;;;;;;;0.00;0.00;;;11.50;100.00;;;;;;4888580;29;20060;-76
2023/10/31 08:31:07;;;;;;;0.00;0.00;;;11.50;100.00;;;;;;4888527;29;20045;-76
2023/10/31 08:33:35;;;;;;;0.00;0.00;;;11.50;100.00;;;;;;4899649;29;20135;-85
2023/10/31 08:36:02;;;;;;;0.00;0.00;;;11.50;100.00;;;;;;4896886;29;20060;-85
2023/10/31 08:38:29;;;;;;;0.00;0.00;;;11.60;100.00;;;;;;4902103;29;20104;-85
2023/10/31 08:40:58;;;;;;;0.00;0.00;;;11.60;100.00;;;;;;4921482;23;21157;-80
2023/10/31 08:43:26;;;;;;;0.00;0.00;;;11.60;100.00;;;;;;4949599;28;20050;-82
2023/10/31 08:45:53;;;;;;;0.00;0.00;;;11.60;100.00;;;;;;4939359;28;20055;-81
2023/10/31 08:48:21;;;;;;;0.00;0.00;;;11.60;100.00;;;;;;4944524;28;20106;-81
2023/10/31 08:50:48;;;;;;;0.45;0.32;;;11.60;100.00;;;;;;4946552;28;20047;-81
2023/10/31 08:53:15;;;;;;;0.00;0.00;;;11.60;100.00;;;;;;4948377;28;20057;-81
2023/10/31 08:55:45;;;;;;;0.00;0.00;;;11.50;100.00;;;;;;4965745;28;20070;-82
2023/10/31 08:58:13;;;;;;;0.00;0.00;;;11.50;100.00;;;;;;4940648;28;20152;-81
2023/10/31 09:00:41;;;;;;;0.00;0.00;;;11.40;100.00;;;;;;4942563;28;20109;-81
2023/10/31 09:03:08;;;;;;;0.00;0.00;;;11.40;100.00;;;;;;4954955;28;20093;-81
2023/10/31 09:05:35;;;;;;;0.08;0.08;;;11.30;100.00;;;;;;4949854;28;20600;-81
2023/10/31 09:08:02;;;;;;;0.00;0.00;;;11.30;100.00;;;;;;4948150;28;20050;-82
2023/10/31 09:10:29;;;;;;;0.00;0.00;;;11.30;100.00;;;;;;4947115;29;20081;-82
2023/10/31 09:12:56;;;;;;;0.00;0.00;;;11.30;100.00;;;;;;4956533;28;20091;-82
2023/10/31 09:15:24;;;;;;;0.00;0.00;;;11.30;100.00;;;;;;4948136;28;20047;-81
2023/10/31 09:17:51;;;;;;;0.00;0.00;;;11.30;100.00;;;;;;4951870;28;20069;-81
2023/10/31 09:20:18;;;;;;;0.00;0.00;;;11.30;100.00;;;;;;4943226;28;20043;-81
2023/10/31 09:22:45;;;;;;;0.00;0.00;;;11.20;100.00;;;;;;4938499;28;20098;-80
2023/10/31 09:25:12;;;;;;;0.00;0.00;;;11.20;100.00;;;;;;4955617;28;20055;-80
2023/10/31 09:27:41;;;;;;;0.00;0.00;;;11.20;100.00;;;;;;4958492;28;20062;-79
2023/10/31 09:30:08;;;;;;;0.00;0.00;;;11.10;100.00;;;;;;4937773;28;20113;-76
2023/10/31 09:32:35;;;;;;;0.00;0.00;;;11.10;100.00;;;;;;4958907;28;20145;-74
2023/10/31 09:35:03;;;;;;;0.00;0.00;;;11.10;100.00;;;;;;4929378;28;20055;-72
2023/10/31 09:37:30;;;;;;;0.00;0.00;;;11.10;100.00;;;;;;4955570;28;20519;-71
2023/10/31 09:39:57;;;;;;;0.00;0.00;;;11.10;100.00;;;;;;4952857;28;20058;-71
2023/10/31 09:42:24;;;;;;;0.00;0.00;;;11.10;100.00;;;;;;4912613;28;1194498;-72
2023/10/31 09:44:51;;;;;;;0.00;0.00;;;11.10;100.00;;;;;;4961835;28;20136;-70
2023/10/31 09:47:20;;;;;;;0.00;0.00;;;11.10;100.00;;;;;;4938148;29;20368;-71
2023/10/31 09:49:47;;;;;;;0.00;0.00;;;11.10;100.00;;;;;;4961896;28;20082;-71
2023/10/31 09:52:14;;;;;;;0.00;0.00;;;11.10;100.00;;;;;;4947517;28;20157;-71
2023/10/31 09:54:42;;;;;;;0.00;0.00;;;11.10;100.00;;;;;;4959911;28;20051;-71
2023/10/31 09:57:14;;;;;;;0.00;0.00;;;11.10;100.00;;;;;;4953351;28;20762;-71
2023/10/31 09:59:41;;;;;;;0.00;0.00;;;11.10;100.00;;;;;;4936529;28;20051;-71
2023/10/31 10:02:07;;;;;;;0.00;0.00;;;11.10;100.00;;;;;;4966659;28;20694;-72
2023/10/31 10:04:35;;;;;;;0.00;0.00;;;11.10;100.00;;;;;;4946922;28;20051;-71
2023/10/31 10:07:03;;;;;;;0.00;0.00;;;11.10;100.00;;;;;;4950797;28;20054;-71
2023/10/31 10:09:32;;;;;;;0.00;0.00;;;11.10;100.00;;;;;;4963568;28;20058;-71
2023/10/31 10:12:00;;;;;;;0.00;0.00;;;11.10;100.00;;;;;;4962114;28;20053;-71
2023/10/31 10:14:28;;;;;;;0.00;0.00;;;11.00;100.00;;;;;;4960802;28;20074;-71
2023/10/31 10:16:55;;;;;;;0.00;0.00;;;11.10;100.00;;;;;;4959156;28;20054;-71
2023/10/31 10:19:23;;;;;;;0.20;0.20;;;11.00;100.00;;;;;;4962712;28;20086;-71
2023/10/31 10:21:58;;;;;;;0.00;0.00;;;11.00;100.00;;;;;;4959405;28;20047;-71
2023/10/31 10:24:25;;;;;;;0.00;0.00;;;11.00;100.00;;;;;;4949216;28;20047;-72
2023/10/31 10:26:52;;;;;;;0.00;0.00;;;11.00;100.00;;;;;;4957503;28;20142;-71
2023/10/31 10:29:20;;;;;;;0.00;0.00;;;11.00;100.00;;;;;;4939185;28;20501;-72
2023/10/31 10:31:47;;;;;;;0.00;0.00;;;11.00;100.00;;;;;;4956997;28;20103;-71
2023/10/31 10:34:16;;;;;;;0.00;0.00;;;10.90;100.00;;;;;;4954712;28;20054;-70
2023/10/31 10:36:49;;;;;;;0.00;0.00;;;11.00;100.00;;;;;;4963605;28;20057;-70
2023/10/31 10:39:21;;;;;;;0.00;0.00;;;10.90;100.00;;;;;;4960318;28;20171;-74
2023/10/31 10:41:58;;;;;;;0.00;0.00;;;10.90;100.00;;;;;;4939831;28;20060;-71
2023/10/31 10:44:35;;;;;;;0.00;0.00;;;11.00;100.00;;;;;;4957557;28;20054;-71
2023/10/31 10:47:04;;;;;;;0.00;0.00;;;11.00;100.00;;;;;;4961426;28;20121;-71
2023/10/31 10:49:36;;;;;;;0.00;0.00;;;11.00;100.00;;;;;;4942798;28;20092;-73
2023/10/31 10:52:22;;;;;;;1.77;1.38;;;11.00;100.00;;;;;;4941672;28;20073;-71
2023/10/31 10:54:49;;;;;;;0.28;0.28;;;11.10;100.00;;;;;;4936502;28;20075;-71
2023/10/31 10:57:30;;;;;;;0.00;0.00;;;11.20;100.00;;;;;;4960416;28;20473;-70
2023/10/31 11:00:03;;;;;;;0.90;0.90;;;11.30;100.00;;;;;;4960617;28;20207;-70
2023/10/31 11:02:32;;;;;;;0.00;0.00;;;11.30;100.00;;;;;;4958568;28;20488;-72
2023/10/31 11:04:59;;;;;;;0.00;0.00;;;11.30;100.00;;;;;;4945168;28;20823;-69
2023/10/31 11:07:29;;;;;;;0.00;0.00;;;11.20;100.00;;;;;;4955424;28;20066;-73
2023/10/31 11:09:57;;;;;;;0.00;0.00;;;11.20;100.00;;;;;;4955858;28;20062;-73
2023/10/31 11:12:26;;;;;;;0.00;0.00;;;11.10;100.00;;;;;;4955143;28;20141;-72
2023/10/31 11:14:53;;;;;;;0.00;0.00;;;11.10;100.00;;;;;;4953017;28;20046;-72
2023/10/31 11:17:34;;;;;;;0.00;0.00;;;11.00;100.00;;;;;;4935230;28;20669;-72
2023/10/31 11:20:01;;;;;;;0.00;0.00;;;11.10;100.00;;;;;;4964331;28;20138;-72
2023/10/31 11:22:43;;;;;;;0.00;0.00;;;11.10;100.00;;;;;;4936760;29;20047;-72
2023/10/31 11:25:15;;;;;;;0.00;0.00;;;11.10;100.00;;;;;;4942570;28;20051;-72
2023/10/31 11:28:09;;;;;;;0.00;0.00;;;11.10;100.00;;;;;;4960972;28;20051;-71
2023/10/31 11:30:36;;;;;;;0.00;0.00;;;11.10;100.00;;;;;;4941300;28;20078;-72
2023/10/31 11:36:38;;;;;;;0.00;0.00;;;11.10;100.00;;;;;;4900119;29;20048;-72
2023/10/31 11:39:20;;;;;;;0.00;0.00;;;11.00;100.00;;;;;;4893452;29;20052;-72
2023/10/31 11:41:50;;;;;;;0.00;0.00;;;10.90;100.00;;;;;;4893161;29;20064;-72
2023/10/31 11:44:17;;;;;;;0.00;0.00;;;10.80;100.00;;;;;;4891830;29;20172;-71
2023/10/31 11:46:50;;;;;;;0.00;0.00;;;10.80;100.00;;;;;;4894665;29;20122;-72
2023/10/31 11:49:17;;;;;;;0.00;0.00;;;10.80;100.00;;;;;;4887840;29;20076;-71
2023/10/31 11:51:47;;;;;;;0.00;0.00;;;10.80;100.00;;;;;;4894851;29;20180;-69
2023/10/31 11:54:15;;;;;;;0.00;0.00;;;10.80;100.00;;;;;;4895500;29;20909;-71
2023/10/31 11:56:42;;;;;;;0.00;0.00;;;10.80;100.00;;;;;;4895405;29;20048;-71
2023/10/31 11:59:09;;;;;;;0.00;0.00;;;10.80;100.00;;;;;;4874809;29;20199;-69
2023/10/31 12:01:48;;;;;;;0.00;0.00;;;10.70;100.00;;;;;;4895163;29;20095;-71
2023/10/31 12:04:23;;;;;;;0.00;0.00;;;10.70;100.00;;;;;;4896872;29;20044;-69
2023/10/31 12:07:08;;;;;;;0.00;0.00;;;10.70;100.00;;;;;;4889524;29;20049;-71
2023/10/31 12:09:48;;;;;;;0.00;0.00;;;10.70;100.00;;;;;;4901886;29;20116;-71
2023/10/31 12:12:15;;;;;;;0.00;0.00;;;10.70;100.00;;;;;;4900050;29;20431;-71
2023/10/31 12:14:42;;;;;;;0.00;0.00;;;10.80;100.00;;;;;;4897914;29;20163;-71
2023/10/31 12:17:10;;;;;;;0.00;0.00;;;10.80;100.00;;;;;;4885157;29;20797;-72
2023/10/31 12:19:37;;;;;;;0.00;0.00;;;10.80;100.00;;;;;;4889997;29;20064;-71
2023/10/31 12:22:14;;;;;;;0.00;0.00;;;10.80;100.00;;;;;;4891432;29;20107;-72
2023/10/31 12:24:40;;;;;;;0.00;0.00;;;10.80;100.00;;;;;;4889427;29;20611;-72
2023/10/31 12:27:07;;;;;;;0.00;0.00;;;10.80;100.00;;;;;;4901074;29;20064;-73
2023/10/31 12:29:34;;;;;;;0.00;0.00;;;10.70;100.00;;;;;;4887401;29;20052;-72
2023/10/31 12:32:02;;;;;;;0.00;0.00;;;10.70;100.00;;;;;;4892366;29;20406;-72
2023/10/31 12:34:29;;;;;;;0.00;0.00;;;10.70;100.00;;;;;;4893880;29;20135;-73
2023/10/31 12:36:59;;;;;;;0.00;0.00;;;10.70;100.00;;;;;;4898497;29;20148;-70
2023/10/31 12:39:27;;;;;;;0.00;0.00;;;10.70;100.00;;;;;;4901683;29;20048;-72
2023/10/31 12:41:54;;;;;;;0.00;0.00;;;10.70;100.00;;;;;;4901986;29;20064;-73
2023/10/31 12:44:25;;;;;;;0.00;0.00;;;10.70;100.00;;;;;;4896153;29;20070;-73
2023/10/31 12:46:53;;;;;;;0.00;0.00;;;10.70;100.00;;;;;;4903664;29;20068;-72
2023/10/31 12:49:21;;;;;;;0.00;0.00;;;10.70;100.00;;;;;;4894162;29;20056;-72
2023/10/31 12:51:57;;;;;;;0.00;0.00;;;10.80;100.00;;;;;;4900808;29;20146;-73